createdAt,value
2017-09-22T00:02:00.317Z,90.60
2017-09-22T00:04:27.944Z,90.50
2017-09-22T00:06:55.676Z,90.90
2017-09-22T00:09:23.973Z,90.70
2017-09-22T00:11:52.353Z,90.80
2017-09-22T00:14:19.900Z,90.80
2017-09-22T00:16:47.512Z,91.00
2017-09-22T00:19:15.052Z,91.00
2017-09-22T00:21:42.619Z,91.60
2017-09-22T00:24:10.161Z,91.90
2017-09-22T00:26:37.746Z,92.20
2017-09-22T00:29:05.274Z,92.00
2017-09-22T00:31:33.110Z,91.30
2017-09-22T00:34:01.497Z,92.00
2017-09-22T00:36:29.135Z,92.40
2017-09-22T00:38:56.716Z,92.20
2017-09-22T00:41:25.245Z,92.10
2017-09-22T00:43:52.855Z,92.10
2017-09-22T00:46:20.431Z,92.10
2017-09-22T00:48:48.803Z,92.20
2017-09-22T00:51:17.108Z,92.10
2017-09-22T00:53:44.679Z,92.10
2017-09-22T00:56:12.233Z,92.00
2017-09-22T00:58:39.810Z,92.10
2017-09-22T01:01:08.108Z,92.10
2017-09-22T01:03:35.682Z,92.10
2017-09-22T01:06:03.217Z,91.90
2017-09-22T01:08:30.824Z,91.80
2017-09-22T01:10:58.400Z,92.10
2017-09-22T01:13:26.321Z,92.20
2017-09-22T01:15:54.075Z,92.10
2017-09-22T01:18:21.750Z,91.90
2017-09-22T01:20:49.347Z,92.00
2017-09-22T01:23:17.728Z,91.90
2017-09-22T01:25:45.372Z,91.90
2017-09-22T01:28:13.887Z,92.20
2017-09-22T01:30:41.486Z,92.10
2017-09-22T01:33:09.053Z,92.00
2017-09-22T01:35:36.694Z,92.00
2017-09-22T01:38:04.332Z,92.00
2017-09-22T01:40:31.992Z,91.80
2017-09-22T01:42:59.765Z,92.00
2017-09-22T01:45:28.848Z,92.10
2017-09-22T01:47:56.517Z,92.10
2017-09-22T01:50:24.925Z,92.10
2017-09-22T01:52:52.569Z,92.10
2017-09-22T01:55:20.152Z,92.10
2017-09-22T01:57:47.823Z,92.10
2017-09-22T02:00:15.429Z,92.20
2017-09-22T02:02:43.029Z,92.20
2017-09-22T02:05:11.436Z,92.10
2017-09-22T02:07:39.028Z,92.10
2017-09-22T02:10:06.684Z,92.30
2017-09-22T02:12:35.053Z,92.00
2017-09-22T02:15:03.436Z,92.30
2017-09-22T02:17:31.097Z,92.30
2017-09-22T02:19:58.736Z,92.30
2017-09-22T02:22:26.442Z,92.20
2017-09-22T02:24:54.151Z,92.20
2017-09-22T02:27:21.723Z,92.50
2017-09-22T02:29:49.401Z,92.60
2017-09-22T02:32:17.766Z,92.50
2017-09-22T02:34:46.178Z,92.40
2017-09-22T02:37:13.777Z,92.40
2017-09-22T02:39:42.185Z,92.60
2017-09-22T02:42:09.789Z,92.60
2017-09-22T02:44:38.144Z,92.20
2017-09-22T02:47:06.560Z,92.10
2017-09-22T02:49:34.154Z,92.00
2017-09-22T02:52:02.567Z,92.50
2017-09-22T02:54:30.215Z,92.50
2017-09-22T02:56:57.828Z,92.30
2017-09-22T02:59:26.303Z,92.40
2017-09-22T03:01:53.979Z,92.40
2017-09-22T03:04:21.770Z,92.30
2017-09-22T03:06:49.496Z,92.10
2017-09-22T03:09:17.111Z,92.30
2017-09-22T03:11:44.762Z,92.20
2017-09-22T03:14:12.331Z,92.40
2017-09-22T03:16:39.997Z,92.40
2017-09-22T03:19:07.609Z,92.60
2017-09-22T03:21:35.229Z,92.30
2017-09-22T03:24:02.945Z,92.20
2017-09-22T03:26:30.754Z,92.30
2017-09-22T03:28:58.388Z,92.10
2017-09-22T03:31:26.482Z,92.50
2017-09-22T03:33:54.350Z,92.60
2017-09-22T03:36:22.878Z,92.60
2017-09-22T03:38:50.534Z,92.60
2017-09-22T03:41:18.207Z,92.40
2017-09-22T03:43:46.901Z,92.20
2017-09-22T03:46:14.719Z,92.30
2017-09-22T03:48:42.332Z,92.40
2017-09-22T03:51:09.960Z,91.90
2017-09-22T03:53:37.590Z,91.60
2017-09-22T03:56:05.166Z,91.80
2017-09-22T03:58:32.801Z,91.90
2017-09-22T04:01:00.452Z,92.10
2017-09-22T04:03:28.148Z,92.10
2017-09-22T04:05:55.975Z,92.00
2017-09-22T04:08:25.365Z,92.40
2017-09-22T04:10:53.039Z,92.20
2017-09-22T04:13:20.687Z,92.40
2017-09-22T04:15:48.241Z,92.50
2017-09-22T04:18:16.578Z,92.20
2017-09-22T04:20:44.579Z,92.50
2017-09-22T04:23:12.486Z,92.70
2017-09-22T04:25:40.097Z,92.70
2017-09-22T04:28:07.684Z,92.60
2017-09-22T04:30:35.281Z,92.60
2017-09-22T04:33:03.719Z,92.50
2017-09-22T04:35:31.320Z,92.80
2017-09-22T04:37:58.950Z,92.20
2017-09-22T04:40:26.800Z,92.30
2017-09-22T04:42:54.679Z,92.60
2017-09-22T04:45:23.242Z,92.80
2017-09-22T04:47:50.840Z,92.80
2017-09-22T04:50:18.413Z,93.10
2017-09-22T04:52:46.102Z,93.00
2017-09-22T04:55:13.670Z,93.30
2017-09-22T04:57:41.243Z,93.20
2017-09-22T05:00:09.661Z,92.80
2017-09-22T05:02:37.266Z,92.70
2017-09-22T05:05:04.914Z,92.50
2017-09-22T05:07:32.591Z,92.60
2017-09-22T05:10:01.024Z,92.40
2017-09-22T05:12:28.664Z,92.40
2017-09-22T05:14:57.234Z,92.40
2017-09-22T05:17:24.850Z,92.40
2017-09-22T05:19:52.542Z,92.40
2017-09-22T05:22:20.238Z,92.60
2017-09-22T05:24:47.887Z,92.70
2017-09-22T05:27:15.423Z,92.80
2017-09-22T05:29:42.954Z,92.80
2017-09-22T05:32:10.523Z,92.90
2017-09-22T05:34:38.058Z,93.10
2017-09-22T05:37:05.638Z,92.90
2017-09-22T05:39:33.946Z,92.70
2017-09-22T05:42:01.552Z,92.70
2017-09-22T05:44:29.899Z,92.90
2017-09-22T05:46:58.392Z,93.00
2017-09-22T05:49:25.981Z,93.00
2017-09-22T05:51:53.645Z,92.90
2017-09-22T05:54:21.191Z,93.20
2017-09-22T05:56:48.763Z,93.60
2017-09-22T05:59:17.064Z,92.80
2017-09-22T06:01:44.640Z,92.80
2017-09-22T06:04:12.179Z,92.70
2017-09-22T06:06:39.715Z,92.70
2017-09-22T06:09:07.285Z,92.60
2017-09-22T06:11:34.847Z,92.70
2017-09-22T06:14:03.139Z,92.60
2017-09-22T06:16:30.724Z,92.60
2017-09-22T06:18:58.323Z,92.70
2017-09-22T06:21:25.987Z,92.40
2017-09-22T06:23:53.630Z,92.60
2017-09-22T06:26:21.187Z,92.50
2017-09-22T06:28:48.763Z,92.60
2017-09-22T06:31:16.294Z,92.80
2017-09-22T06:33:43.867Z,93.10
2017-09-22T06:36:11.396Z,93.40
2017-09-22T06:38:38.968Z,93.60
2017-09-22T06:41:07.283Z,93.40
2017-09-22T06:43:34.850Z,93.40
2017-09-22T06:46:02.383Z,93.10
2017-09-22T06:48:29.996Z,92.80
2017-09-22T06:50:57.601Z,92.30
2017-09-22T06:53:25.235Z,92.10
2017-09-22T06:55:52.810Z,92.00
2017-09-22T06:58:20.387Z,92.10
2017-09-22T07:00:47.920Z,91.70
2017-09-22T07:03:15.487Z,91.70
2017-09-22T07:05:43.016Z,92.10
2017-09-22T07:08:10.600Z,92.20
2017-09-22T07:10:38.140Z,91.70
2017-09-22T07:13:06.231Z,91.70
2017-09-22T07:15:34.531Z,91.60
2017-09-22T07:18:02.143Z,91.50
2017-09-22T07:20:29.710Z,91.70
2017-09-22T07:22:57.310Z,92.00
2017-09-22T07:25:24.915Z,92.00
2017-09-22T07:27:52.545Z,91.80
2017-09-22T07:30:20.095Z,91.30
2017-09-22T07:32:47.635Z,90.80
2017-09-22T07:35:15.236Z,90.60
2017-09-22T07:37:42.776Z,90.80
2017-09-22T07:40:10.355Z,90.60
2017-09-22T07:42:38.656Z,87.60
2017-09-22T07:45:06.231Z,87.60
2017-09-22T07:47:33.770Z,87.00
2017-09-22T07:50:01.359Z,85.80
2017-09-22T07:52:28.905Z,84.30
2017-09-22T07:54:56.484Z,84.10
2017-09-22T07:57:24.180Z,83.80
2017-09-22T07:59:52.562Z,83.10
2017-09-22T08:02:20.104Z,83.00
2017-09-22T08:04:47.678Z,82.70
2017-09-22T08:07:15.208Z,82.70
2017-09-22T08:09:42.780Z,83.60
2017-09-22T08:12:10.315Z,85.00
2017-09-22T08:14:37.884Z,85.30
2017-09-22T08:17:05.427Z,83.80
2017-09-22T08:19:33.007Z,82.60
2017-09-22T08:22:01.388Z,79.10
2017-09-22T08:24:29.744Z,77.50
2017-09-22T08:26:58.156Z,76.30
2017-09-22T08:29:25.814Z,76.20
2017-09-22T08:31:53.574Z,75.20
2017-09-22T08:34:21.945Z,74.50
2017-09-22T08:36:49.491Z,74.50
2017-09-22T08:39:17.067Z,75.30
2017-09-22T08:41:44.641Z,76.00
2017-09-22T08:44:12.248Z,76.50
2017-09-22T08:46:40.588Z,76.30
2017-09-22T08:49:08.123Z,76.30
2017-09-22T08:51:35.697Z,75.70
2017-09-22T08:54:04.004Z,73.10
2017-09-22T08:56:31.584Z,73.00
2017-09-22T08:58:59.177Z,72.30
2017-09-22T09:01:26.775Z,71.50
2017-09-22T09:03:54.463Z,71.80
2017-09-22T09:06:22.036Z,71.60
2017-09-22T09:08:49.572Z,71.20
2017-09-22T09:11:17.152Z,71.10
2017-09-22T09:13:44.698Z,71.20
2017-09-22T09:16:12.293Z,69.50
2017-09-22T09:18:39.893Z,68.50
2017-09-22T09:21:07.476Z,68.40
2017-09-22T09:23:35.787Z,67.40
2017-09-22T09:26:03.371Z,67.30
2017-09-22T09:28:31.801Z,65.80
2017-09-22T09:30:59.376Z,65.80
2017-09-22T09:33:27.697Z,66.50
2017-09-22T09:35:55.291Z,66.40
2017-09-22T09:38:23.899Z,66.40
2017-09-22T09:40:51.537Z,66.40
2017-09-22T09:43:19.082Z,66.10
2017-09-22T09:45:46.668Z,65.80
2017-09-22T09:48:14.997Z,66.20
2017-09-22T09:50:42.571Z,67.20
2017-09-22T09:53:10.912Z,65.50
2017-09-22T09:55:38.510Z,65.00
2017-09-22T09:58:06.055Z,64.70
2017-09-22T10:00:33.604Z,65.00
2017-09-22T10:03:01.964Z,65.10
2017-09-22T10:05:30.326Z,66.50
2017-09-22T10:07:58.719Z,66.00
2017-09-22T10:10:26.275Z,65.80
2017-09-22T10:12:53.882Z,64.30
2017-09-22T10:15:22.206Z,64.90
2017-09-22T10:17:49.788Z,64.90
2017-09-22T10:20:17.328Z,64.50
2017-09-22T10:22:44.909Z,64.50
2017-09-22T10:25:12.461Z,64.10
2017-09-22T10:27:40.136Z,64.00
2017-09-22T10:30:07.716Z,62.70
2017-09-22T10:32:35.349Z,63.30
2017-09-22T10:35:02.962Z,62.50
2017-09-22T10:37:30.631Z,62.10
2017-09-22T10:39:58.250Z,61.70
2017-09-22T10:42:25.856Z,61.60
2017-09-22T10:44:54.168Z,61.40
2017-09-22T10:47:21.796Z,61.40
2017-09-22T10:49:49.336Z,61.30
2017-09-22T10:52:18.535Z,59.70
2017-09-22T10:54:46.194Z,60.20
2017-09-22T10:57:13.779Z,60.30
2017-09-22T10:59:43.077Z,60.00
2017-09-22T11:02:13.364Z,61.70
2017-09-22T11:04:40.921Z,62.10
2017-09-22T11:07:08.517Z,61.60
2017-09-22T11:09:36.079Z,60.00
2017-09-22T11:12:03.662Z,59.70
2017-09-22T11:14:31.984Z,58.70
2017-09-22T11:16:59.644Z,58.60
2017-09-22T11:19:27.234Z,57.90
2017-09-22T11:21:54.899Z,58.40
2017-09-22T11:24:22.445Z,57.60
2017-09-22T11:26:50.007Z,57.40
2017-09-22T11:29:17.611Z,59.00
2017-09-22T11:31:45.436Z,57.90
2017-09-22T11:34:12.516Z,57.90
2017-09-22T11:36:40.055Z,57.80
2017-09-22T11:39:07.650Z,58.10
2017-09-22T11:41:35.195Z,56.70
2017-09-22T11:44:03.550Z,56.70
2017-09-22T11:46:31.148Z,56.70
2017-09-22T11:48:58.784Z,58.10
2017-09-22T11:51:27.116Z,57.50
2017-09-22T11:53:54.728Z,58.10
2017-09-22T11:56:22.285Z,56.60
2017-09-22T11:58:50.672Z,57.10
2017-09-22T12:01:18.234Z,57.10
2017-09-22T12:03:46.676Z,57.60
2017-09-22T12:06:14.421Z,56.10
2017-09-22T12:08:43.077Z,55.40
2017-09-22T12:11:10.616Z,55.40
2017-09-22T12:13:38.163Z,55.20
2017-09-22T12:16:05.739Z,55.70
2017-09-22T12:18:34.051Z,53.10
2017-09-22T12:21:02.387Z,53.40
2017-09-22T12:23:29.970Z,53.40
2017-09-22T12:25:57.560Z,54.50
2017-09-22T12:28:25.169Z,54.30
2017-09-22T12:30:52.763Z,57.50
2017-09-22T12:33:20.305Z,55.50
2017-09-22T12:35:47.922Z,54.70
2017-09-22T12:38:15.592Z,52.40
2017-09-22T12:40:43.171Z,52.00
2017-09-22T12:43:11.471Z,54.10
2017-09-22T12:45:39.042Z,54.10
2017-09-22T12:48:06.579Z,56.50
2017-09-22T12:50:34.156Z,54.70
2017-09-22T12:53:01.700Z,54.80
2017-09-22T12:55:29.284Z,54.60
2017-09-22T12:57:56.839Z,56.60
2017-09-22T13:00:24.479Z,57.20
2017-09-22T13:02:52.036Z,56.20
2017-09-22T13:05:19.578Z,51.60
2017-09-22T13:07:47.174Z,55.00
2017-09-22T13:10:15.508Z,51.30
2017-09-22T13:12:43.089Z,51.20
2017-09-22T13:15:10.624Z,49.60
2017-09-22T13:17:38.193Z,46.50
2017-09-22T13:20:07.056Z,54.30
2017-09-22T13:22:34.647Z,54.30
2017-09-22T13:25:02.209Z,55.10
2017-09-22T13:27:29.861Z,55.60
2017-09-22T13:29:57.412Z,55.00
2017-09-22T13:32:25.005Z,55.70
2017-09-22T13:34:53.408Z,57.10
2017-09-22T13:37:21.001Z,57.70
2017-09-22T13:39:48.553Z,58.10
2017-09-22T13:42:16.890Z,48.80
2017-09-22T13:44:44.456Z,48.80
2017-09-22T13:47:12.773Z,52.90
2017-09-22T13:49:40.347Z,52.90
2017-09-22T13:52:07.884Z,54.00
2017-09-22T13:54:35.466Z,50.70
2017-09-22T13:57:03.804Z,50.30
2017-09-22T13:59:31.389Z,50.30
2017-09-22T14:01:58.976Z,51.70
2017-09-22T14:04:26.778Z,51.40
2017-09-22T14:06:54.436Z,52.10
2017-09-22T14:09:22.105Z,53.40
2017-09-22T14:11:49.743Z,52.70
2017-09-22T14:14:17.343Z,52.80
2017-09-22T14:16:45.668Z,51.40
2017-09-22T14:19:13.235Z,51.30
2017-09-22T14:21:40.765Z,51.20
2017-09-22T14:24:08.324Z,51.00
2017-09-22T14:26:35.862Z,51.20
2017-09-22T14:29:04.212Z,52.70
2017-09-22T14:31:31.793Z,52.60
2017-09-22T14:33:59.411Z,52.50
2017-09-22T14:36:26.991Z,53.30
2017-09-22T14:38:54.681Z,53.80
2017-09-22T14:41:22.219Z,52.70
2017-09-22T14:43:49.822Z,52.20
2017-09-22T14:46:18.156Z,54.80
2017-09-22T14:48:46.748Z,54.90
2017-09-22T14:51:14.283Z,54.90
2017-09-22T14:53:41.859Z,56.50
2017-09-22T14:56:10.185Z,57.10
2017-09-22T14:58:38.504Z,57.30
2017-09-22T15:01:06.083Z,57.30
2017-09-22T15:03:33.620Z,58.70
2017-09-22T15:06:01.215Z,59.70
2017-09-22T15:08:29.644Z,60.60
2017-09-22T15:10:57.296Z,60.40
2017-09-22T15:13:24.855Z,61.00
2017-09-22T15:15:53.271Z,61.50
2017-09-22T15:18:20.823Z,61.50
2017-09-22T15:20:48.402Z,62.20
2017-09-22T15:23:16.708Z,63.50
2017-09-22T15:25:44.353Z,63.40
2017-09-22T15:28:12.752Z,62.80
2017-09-22T15:30:40.456Z,62.80
2017-09-22T15:33:08.763Z,63.50
2017-09-22T15:35:36.344Z,63.40
2017-09-22T15:38:03.910Z,65.00
2017-09-22T15:40:31.487Z,65.50
2017-09-22T15:42:59.017Z,65.20
2017-09-22T15:45:26.632Z,65.00
2017-09-22T15:47:54.993Z,67.10
2017-09-22T15:50:22.596Z,67.10
2017-09-22T15:52:50.196Z,67.80
2017-09-22T15:55:17.782Z,68.00
2017-09-22T15:57:45.320Z,68.70
2017-09-22T16:00:12.923Z,68.20
2017-09-22T16:02:40.464Z,68.50
2017-09-22T16:05:08.012Z,68.70
2017-09-22T16:07:35.598Z,68.10
2017-09-22T16:10:03.145Z,68.00
2017-09-22T16:12:30.722Z,69.00
2017-09-22T16:14:58.284Z,69.30
2017-09-22T16:17:25.903Z,69.80
2017-09-22T16:19:53.481Z,69.80
2017-09-22T16:22:21.059Z,68.90
2017-09-22T16:24:49.406Z,70.60
2017-09-22T16:27:16.951Z,70.60
2017-09-22T16:29:44.487Z,70.10
2017-09-22T16:32:12.058Z,69.30
2017-09-22T16:34:40.472Z,67.70
2017-09-22T16:37:08.058Z,67.70
2017-09-22T16:39:36.364Z,69.20
2017-09-22T16:42:03.945Z,69.20
2017-09-22T16:44:31.505Z,70.80
2017-09-22T16:46:59.866Z,70.30
2017-09-22T16:49:28.188Z,70.80
2017-09-22T16:51:55.786Z,70.70
2017-09-22T16:54:24.121Z,73.10
2017-09-22T16:56:51.715Z,73.10
2017-09-22T16:59:19.320Z,72.00
2017-09-22T17:01:46.925Z,72.90
2017-09-22T17:04:14.476Z,72.20
2017-09-22T17:06:42.047Z,72.80
2017-09-22T17:09:09.785Z,72.80
2017-09-22T17:11:38.161Z,74.20
2017-09-22T17:14:05.695Z,74.10
2017-09-22T17:16:33.269Z,74.10
2017-09-22T17:19:00.807Z,75.30
2017-09-22T17:21:28.396Z,75.40
2017-09-22T17:23:55.942Z,76.40
2017-09-22T17:26:23.578Z,76.20
2017-09-22T17:28:51.125Z,76.00
2017-09-22T17:31:18.697Z,76.00
2017-09-22T17:33:46.325Z,77.60
2017-09-22T17:36:14.196Z,76.50
2017-09-22T17:38:42.478Z,76.70
2017-09-22T17:41:10.209Z,78.00
2017-09-22T17:43:37.947Z,77.80
2017-09-22T17:46:05.626Z,78.00
2017-09-22T17:48:33.293Z,77.40
2017-09-22T17:51:01.856Z,78.00
2017-09-22T17:53:30.314Z,77.80
2017-09-22T17:55:58.030Z,77.70
2017-09-22T17:58:25.716Z,77.60
2017-09-22T18:00:54.315Z,77.00
2017-09-22T18:03:22.785Z,77.50
2017-09-22T18:05:51.246Z,77.50
2017-09-22T18:08:19.739Z,77.50
2017-09-22T18:10:47.344Z,77.70
2017-09-22T18:13:14.883Z,78.20
2017-09-22T18:15:42.454Z,78.70
2017-09-22T18:18:10.764Z,78.80
2017-09-22T18:20:38.409Z,78.80
2017-09-22T18:23:06.397Z,79.50
2017-09-22T18:25:33.976Z,79.40
2017-09-22T18:28:01.533Z,79.50
2017-09-22T18:30:29.560Z,80.10
2017-09-22T18:32:57.856Z,79.60
2017-09-22T18:35:25.451Z,79.60
2017-09-22T18:37:53.019Z,79.70
2017-09-22T18:40:20.608Z,79.60
2017-09-22T18:42:48.172Z,80.20
2017-09-22T18:45:16.135Z,80.40
2017-09-22T18:47:43.775Z,80.10
2017-09-22T18:50:11.431Z,80.50
2017-09-22T18:52:39.028Z,80.50
2017-09-22T18:55:06.761Z,80.40
2017-09-22T18:57:34.307Z,80.90
2017-09-22T19:00:01.901Z,81.00
2017-09-22T19:02:29.446Z,80.60
2017-09-22T19:04:57.797Z,80.50
2017-09-22T19:07:25.342Z,80.50
2017-09-22T19:09:52.960Z,80.70
2017-09-22T19:12:20.504Z,80.60
2017-09-22T19:14:48.046Z,80.70
2017-09-22T19:17:15.612Z,80.80
2017-09-22T19:19:43.140Z,80.80
2017-09-22T19:22:10.705Z,81.10
2017-09-22T19:24:38.239Z,81.50
2017-09-22T19:27:05.799Z,81.70
2017-09-22T19:29:33.322Z,81.90
2017-09-22T19:32:00.899Z,82.70
2017-09-22T19:34:28.438Z,82.60
2017-09-22T19:36:56.024Z,82.30
2017-09-22T19:39:24.345Z,81.90
2017-09-22T19:41:51.966Z,82.00
2017-09-22T19:44:19.548Z,82.20
2017-09-22T19:46:47.111Z,82.40
2017-09-22T19:49:14.709Z,82.30
2017-09-22T19:51:42.361Z,82.40
2017-09-22T19:54:09.912Z,82.40
2017-09-22T19:56:38.259Z,82.70
2017-09-22T19:59:05.839Z,82.70
2017-09-22T20:01:33.408Z,82.40
2017-09-22T20:04:00.981Z,82.90
2017-09-22T20:06:28.577Z,82.60
2017-09-22T20:08:56.119Z,83.40
2017-09-22T20:11:23.740Z,83.70
2017-09-22T20:13:51.295Z,83.70
2017-09-22T20:16:18.880Z,83.90
2017-09-22T20:18:46.436Z,83.80
2017-09-22T20:21:14.834Z,85.00
2017-09-22T20:23:42.388Z,84.40
2017-09-22T20:26:09.936Z,84.10
2017-09-22T20:28:37.521Z,84.00
2017-09-22T20:31:05.065Z,84.00
2017-09-22T20:33:32.668Z,84.40
2017-09-22T20:36:00.249Z,84.60
2017-09-22T20:38:27.847Z,85.00
2017-09-22T20:40:55.413Z,85.30
2017-09-22T20:43:23.012Z,85.70
2017-09-22T20:45:50.620Z,86.40
2017-09-22T20:48:18.208Z,86.30
2017-09-22T20:50:46.562Z,86.80
2017-09-22T20:53:14.169Z,86.70
2017-09-22T20:55:41.718Z,86.50
2017-09-22T20:58:10.041Z,87.20
2017-09-22T21:00:37.871Z,87.20
2017-09-22T21:03:06.232Z,87.40
2017-09-22T21:05:34.614Z,87.70
2017-09-22T21:08:02.195Z,87.20
2017-09-22T21:10:29.788Z,87.50
2017-09-22T21:12:57.352Z,88.10
2017-09-22T21:15:24.907Z,88.10
2017-09-22T21:17:52.484Z,88.00
2017-09-22T21:20:20.032Z,87.90
2017-09-22T21:22:47.608Z,88.20
2017-09-22T21:25:15.160Z,88.40
2017-09-22T21:27:43.528Z,88.40
2017-09-22T21:30:11.124Z,88.40
2017-09-22T21:32:38.713Z,88.70
2017-09-22T21:35:06.294Z,88.70
2017-09-22T21:37:33.876Z,88.70
2017-09-22T21:40:01.444Z,88.70
2017-09-22T21:42:29.888Z,88.70
2017-09-22T21:44:57.457Z,88.70
2017-09-22T21:47:25.894Z,88.10
2017-09-22T21:49:54.099Z,88.10
2017-09-22T21:52:22.441Z,89.00
2017-09-22T21:54:50.005Z,89.00
2017-09-22T21:57:18.356Z,88.60
2017-09-22T21:59:45.905Z,88.50
2017-09-22T22:02:13.496Z,88.70
2017-09-22T22:04:46.735Z,88.70
2017-09-22T22:07:20.668Z,88.70
2017-09-22T22:09:48.216Z,88.60
2017-09-22T22:12:15.809Z,88.80
2017-09-22T22:14:43.388Z,89.20
2017-09-22T22:17:11.045Z,89.00
2017-09-22T22:19:38.598Z,89.20
2017-09-22T22:22:06.193Z,88.90
2017-09-22T22:24:33.821Z,89.20
2017-09-22T22:27:01.416Z,89.70
2017-09-22T22:29:29.048Z,89.70
2017-09-22T22:31:57.473Z,89.60
2017-09-22T22:34:25.076Z,89.50
2017-09-22T22:37:04.575Z,89.90
2017-09-22T22:39:32.942Z,89.80
2017-09-22T22:42:01.272Z,89.60
2017-09-22T22:44:28.884Z,89.50
2017-09-22T22:46:56.576Z,89.40
2017-09-22T22:49:24.228Z,89.60
2017-09-22T22:51:51.796Z,89.80
2017-09-22T22:54:20.144Z,90.10
2017-09-22T22:56:48.555Z,90.10
2017-09-22T22:59:16.148Z,90.00
2017-09-22T23:01:43.687Z,90.00
2017-09-22T23:04:11.229Z,90.00
2017-09-22T23:06:38.804Z,90.00
2017-09-22T23:09:07.099Z,90.10
2017-09-22T23:11:34.704Z,90.00
2017-09-22T23:14:02.264Z,90.00
2017-09-22T23:16:29.850Z,90.00
2017-09-22T23:18:57.447Z,90.10
2017-09-22T23:21:25.772Z,90.00
2017-09-22T23:23:54.525Z,89.60
2017-09-22T23:26:22.161Z,89.50
2017-09-22T23:28:49.767Z,89.50
2017-09-22T23:31:17.402Z,89.80
2017-09-22T23:33:45.003Z,89.90
2017-09-22T23:36:12.698Z,90.10
2017-09-22T23:38:40.291Z,90.00
2017-09-22T23:41:07.896Z,89.60
2017-09-22T23:43:35.583Z,90.00
2017-09-22T23:46:03.220Z,90.10
2017-09-22T23:48:30.833Z,90.20
2017-09-22T23:50:59.312Z,90.20
2017-09-22T23:53:28.072Z,90.20
2017-09-22T23:55:56.431Z,90.50
2017-09-22T23:58:24.481Z,90.40
